EDT,Max TemperatureF,Mean TemperatureF,Min TemperatureF,Max Dew PointF,MeanDew PointF,Min DewpointF,Max Humidity, Mean Humidity, Min Humidity, Max Sea Level PressureIn, Mean Sea Level PressureIn, Min Sea Level PressureIn, Max VisibilityMiles, Mean VisibilityMiles, Min VisibilityMiles, Max Wind SpeedMPH, Mean Wind SpeedMPH, Max Gust SpeedMPH,PrecipitationIn, CloudCover, Events, WindDirDegrees
2007-6-1,84,72,59,60,57,54,93,67,40,30.12,30.07,30.02,10,7,4,20,4,25,0.00,2,,340
2007-6-2,76,67,58,61,58,54,96,71,46,30.08,29.99,29.80,10,5,0,10,3,15,0.01,4,Fog-Rain,103
2007-6-3,76,68,60,59,57,52,90,68,46,29.78,29.64,29.59,10,9,5,23,10,28,0.08,3,Rain,340
2007-6-4,85,71,57,58,52,45,93,61,28,29.69,29.64,29.59,10,8,4,15,5,20,0.00,2,,273
2007-6-5,84,70,56,56,50,43,86,55,24,29.84,29.73,29.67,10,10,10,17,7,24,T,1,,317
2007-6-6,83,70,56,57,53,47,93,61,28,30.01,29.94,29.85,10,8,0,14,5,16,T,2,Fog,333
2007-6-7,88,79,70,62,56,51,93,64,34,30.13,30.07,30.01,10,10,3,20,6,24,0.00,0,,180
2007-6-8,89,77,64,66,63,60,87,65,43,30.11,30.03,29.98,10,10,10,25,6,31,0.07,1,,347
2007-6-9,83,72,61,61,58,51,93,64,34,30.04,29.99,29.94,10,10,10,24,11,29,0.00,0,,345
2007-6-10,88,75,62,59,53,42,84,54,23,30.01,29.96,29.92,10,10,7,13,5,15,0.00,1,,345
2007-6-11,77,69,61,64,59,54,93,75,57,30.12,30.03,29.99,10,7,3,12,3,14,0.01,5,Rain-Thunderstorm,176
2007-6-12,78,68,58,62,58,55,96,72,48,30.12,30.06,30.00,8,4,2,15,4,22,T,4,Rain,267
2007-6-13,78,68,57,59,56,52,100,70,39,30.10,30.05,29.94,10,4,0,15,6,18,0.10,5,Fog-Rain-Thunderstorm,324
2007-6-14,78,67,56,61,56,53,100,73,46,30.10,30.04,29.96,10,4,0,14,4,18,0.10,6,Fog-Rain,321
2007-6-15,73,66,59,61,59,55,93,80,66,30.11,30.05,29.99,10,8,3,13,6,18,0.05,7,Rain,151
2007-6-16,80,71,62,65,61,57,93,71,48,30.14,30.06,30.01,9,5,2,24,3,31,0.26,4,Rain-Thunderstorm,190
2007-6-17,86,71,56,63,57,49,100,66,31,30.19,30.13,30.04,10,4,0,13,3,15,0.00,1,Fog,337
2007-6-18,89,73,56,64,59,52,93,62,30,30.17,30.12,30.06,10,6,2,17,2,23,0.10,2,Rain-Thunderstorm,233
2007-6-19,86,75,63,65,62,61,93,69,44,30.15,30.05,29.94,10,8,2,17,6,25,T,2,Rain,203
2007-6-20,82,71,60,63,55,46,87,59,30,30.09,30.02,29.95,10,10,10,25,12,30,0.01,1,Rain,338
2007-6-21,86,69,52,50,45,35,83,50,17,30.18,30.10,30.04,10,10,10,14,5,17,0.00,0,,342
2007-6-22,86,68,52,55,50,48,86,52,29,30.08,30.01,29.94,10,10,10,13,4,21,0.00,0,,343
2007-6-23,87,73,58,66,60,54,93,64,34,30.07,29.99,29.89,10,8,0,15,4,17,1.34,3,Fog-Rain-Thunderstorm,333
2007-6-24,84,74,63,68,64,60,93,74,55,30.14,30.06,29.97,10,7,4,16,4,26,0.18,3,Rain-Thunderstorm,150
2007-6-25,83,74,65,65,62,56,93,76,58,30.33,30.25,30.14,10,5,1,26,3,35,0.37,5,Rain-Thunderstorm,221
2007-6-26,85,74,63,65,62,60,93,69,44,30.39,30.31,30.26,10,8,3,17,2,22,0.19,2,Rain,225
2007-6-27,86,74,61,67,62,60,100,74,48,30.32,30.24,30.13,10,4,0,12,3,14,T,3,Fog,279
2007-6-28,86,75,63,66,64,61,93,69,45,30.22,30.16,30.06,10,4,0,10,2,14,0.04,3,Fog-Rain,275
2007-6-29,84,74,64,67,64,60,93,72,51,30.13,30.07,30.01,10,9,3,18,5,22,T,1,Rain-Thunderstorm,266
2007-6-30,85,74,63,63,61,60,93,69,44,30.06,30.02,29.96,10,10,10,17,6,21,0.00,1,,336